Briefing drone pour Belleville

Rechercher une autre localisation

Conditions de vol :


Nous sommes le : Vendredi 22 octobre 2021
Il est 13:44 UTC (15:44 LT)

Lever de soleil : 05:40 UTC (07:40 LT)
Coucher de soleil : 16:59 UTC (18:59 LT)

Météo

L'essentiel des conditions de vol

VIGILANCE MÉTÉO FRANCE - Meurthe-et-Moselle (54)
Pas de vigilances particulieres
METAR de LFSN
LFSN 221330Z AUTO 27008KT 230V320 9999 SCT033 12/04 Q1023

Date d'émission: 22/10/2021
Heure d'émission: 13:30 UTC
Vent: 270° (variable du 230° au 320°) pour 8 KT (15 km/h)
Visibilité horizontale: > 10 km
Plafond :
- Nuages épars à 3300ft (1006m)
Température: 12 °C
Point de rosée: 4 °C
Humidité: 58%
Pression (QNH): 1023 hPa
TAF de LFSN
LFSN 141600Z 1416/1512 CNL

Conditions prévues :

Heure d'émission : Bulletin éffectué le 14 à 16:00 UTC
Prévision : Valide du 14 a 16:00 UTC au 15 a 12:00 UTC
Nuages : à 0ft (0 m)
WEBCAM POUR BELLEVILLE

Réglementation

Voler en sécurité

CARTES AERONAUTIQUE 1/500.000
CARTES VAC (LFSN)
SUP AIP




Chargement des AIP...
NOTAM (BELLEVILLE + Terrain à proximité / FIR )




Chargement des NOTAMS...
CONTACT PREFECTURE 54


Avertissement : Les données mises à disposition sont indicatives. Oxygène Drone ne pourra être tenu responsable de dégâts causés aux biens et aux personnes.